Renteria, Spain
Current Conditions -  °F | °C
As of 9:00 PM on Thursday 29 Jan 2015 (Local Time) from LESO Reporting Station
Light Rain Light Rain  
Wind Chill: 57°   Ceiling: 2000
Heat Index: 57°   Visibility: 6mi
Dew Point: 54°   Wind: 21mph
Humidity: 88%   Direction: 230°SW
Pressure: 29.5"   Gusts: 48mph
Location:  43.31°N, 1.9°W
Report Text: LESO 292000Z 23018G42KT 160V330 9000 -RA SCT015 BKN020 14/12 Q0999
Loading
Personal Weather Stations






























Interactive Weather Map New forecast layout! Learn more

10-Day Weather Forecast

Advertisements
Track Severe Weather on mobile